Time;durP1;ratioP1;P1;durP2;ratioP2;P2;SDS_P1;SDS_P2;PMS_P1;PMS_P2;Temp;Humidity;BMP_temperature;BMP_pressure;BME280_temperature;BME280_humidity;BME280_pressure;Samples;Min_cycle;Max_cycle;Signal;HPM_P1;HPM_P2
2021/01/02 00:05:02;;;;;;;26.03;13.57;;;;;;;0.64;100.00;97825.86;3667941;80;44458;-17
2021/01/02 00:10:10;;;;;;;27.97;13.93;;;;;;;0.57;100.00;97824.62;3793798;78;44033;-18
2021/01/02 00:15:19;;;;;;;30.57;14.00;;;;;;;0.54;100.00;97820.87;3793366;78;44480;-18
2021/01/02 00:20:41;;;;;;;27.47;13.47;;;;;;;0.60;100.00;97825.70;3753773;78;43722;-18
2021/01/02 00:25:50;;;;;;;27.63;13.50;;;;;;;0.64;100.00;97832.98;3786150;78;43416;-18
2021/01/02 00:31:31;;;;;;;25.13;13.43;;;;;;;0.64;100.00;97823.70;3768728;77;43347;-18
2021/01/02 00:36:41;;;;;;;22.67;11.73;;;;;;;0.61;100.00;97828.27;3775215;78;43337;-18
2021/01/02 00:41:48;;;;;;;17.47;8.63;;;;;;;0.56;100.00;97835.69;3731432;78;42785;-18
2021/01/02 00:46:56;;;;;;;16.50;9.67;;;;;;;0.64;100.00;97838.28;3789266;78;43750;-17
2021/01/02 00:52:07;;;;;;;20.47;10.50;;;;;;;0.69;100.00;97844.93;3741646;78;43452;-18
2021/01/02 00:57:17;;;;;;;19.70;11.10;;;;;;;0.67;100.00;97851.28;3793778;77;43778;-18
2021/01/02 01:02:59;;;;;;;21.60;11.23;;;;;;;0.59;100.00;97851.38;3734850;77;43876;-18
2021/01/02 01:08:07;;;;;;;23.73;11.63;;;;;;;0.53;100.00;97858.94;3792891;78;43269;-17
2021/01/02 01:13:15;;;;;;;22.93;11.70;;;;;;;0.51;100.00;97859.06;3690586;80;43420;-17
2021/01/02 01:18:49;;;;;;;22.13;11.87;;;;;;;0.47;100.00;97869.50;3779802;78;41955;-17
2021/01/02 01:24:12;;;;;;;24.27;12.43;;;;;;;0.51;100.00;97870.98;3762959;78;44430;-17
2021/01/02 01:29:21;;;;;;;23.87;12.80;;;;;;;0.46;100.00;97870.45;3793484;78;43718;-18
2021/01/02 01:34:29;;;;;;;23.73;12.73;;;;;;;0.46;100.00;97874.43;3772305;77;43276;-18
2021/01/02 01:39:36;;;;;;;23.40;12.17;;;;;;;0.50;100.00;97879.89;3735007;78;44495;-18
2021/01/02 01:45:01;;;;;;;23.20;12.07;;;;;;;0.52;100.00;97881.95;3696580;80;43689;-18
2021/01/02 01:50:31;;;;;;;22.70;12.10;;;;;;;0.52;100.00;97881.95;3792304;78;44073;-18
2021/01/02 01:55:46;;;;;;;22.50;12.43;;;;;;;0.54;100.00;97878.69;3792287;78;44475;-18
2021/01/02 02:00:55;;;;;;;23.53;12.37;;;;;;;0.53;100.00;97877.48;3754685;78;43090;-18
2021/01/02 02:06:05;;;;;;;24.03;12.77;;;;;;;0.56;100.00;97877.27;3777771;77;43039;-18
2021/01/02 02:11:22;;;;;;;22.50;12.20;;;;;;;0.57;100.00;97880.30;3780274;78;44042;-18
2021/01/02 02:16:31;;;;;;;23.33;11.70;;;;;;;0.53;100.00;97873.02;3689782;79;43990;-18
2021/01/02 02:21:41;;;;;;;22.80;11.40;;;;;;;0.42;100.00;97873.81;3793216;78;44029;-18
2021/01/02 02:26:49;;;;;;;30.27;12.60;;;;;;;0.45;100.00;97881.55;3794082;78;43742;-19
2021/01/02 02:31:59;;;;;;;20.27;10.57;;;;;;;0.49;100.00;97878.19;3763906;78;44456;-19
2021/01/02 02:37:05;;;;;;;21.77;10.93;;;;;;;0.53;100.00;97882.30;3684110;79;44018;-19
2021/01/02 02:42:11;;;;;;;20.13;10.87;;;;;;;0.55;100.00;97888.34;3631818;80;43272;-20
2021/01/02 02:47:19;;;;;;;20.30;11.10;;;;;;;0.55;100.00;97887.50;3687601;80;43727;-19
2021/01/02 02:52:29;;;;;;;16.77;9.30;;;;;;;0.54;100.00;97887.13;3794253;78;43731;-20
2021/01/02 02:57:37;;;;;;;22.00;11.03;;;;;;;0.57;100.00;97897.03;3731384;78;44091;-20
2021/01/02 03:02:44;;;;;;;20.23;11.00;;;;;;;0.59;100.00;97892.47;3644585;80;43806;-19
2021/01/02 03:07:51;;;;;;;17.50;9.57;;;;;;;0.60;100.00;97895.48;3800701;78;44010;-19
2021/01/02 03:12:56;;;;;;;17.57;9.23;;;;;;;0.60;100.00;97891.52;3630111;80;44087;-19
2021/01/02 03:18:03;;;;;;;15.87;8.80;;;;;;;0.63;100.00;97890.92;3806274;78;43396;-19
2021/01/02 03:23:09;;;;;;;17.77;8.93;;;;;;;0.66;100.00;97884.05;3806676;78;43729;-20
2021/01/02 03:28:15;;;;;;;16.53;8.57;;;;;;;0.66;100.00;97882.73;3794215;78;44479;-20
2021/01/02 03:33:20;;;;;;;14.93;8.27;;;;;;;0.67;100.00;97881.77;3781590;78;44135;-19
2021/01/02 03:38:27;;;;;;;13.93;7.80;;;;;;;0.66;100.00;97886.24;3791168;78;44050;-19
2021/01/02 03:43:35;;;;;;;13.10;7.83;;;;;;;0.66;100.00;97888.89;3754889;76;43715;-20
2021/01/02 03:48:41;;;;;;;12.63;7.17;;;;;;;0.66;100.00;97893.33;3806222;78;44031;-19
2021/01/02 03:53:47;;;;;;;13.30;7.40;;;;;;;0.66;100.00;97888.89;3806403;78;43714;-19
2021/01/02 03:58:54;;;;;;;12.63;7.43;;;;;;;0.65;100.00;97889.02;3786309;78;43776;-19
2021/01/02 04:03:59;;;;;;;13.50;8.00;;;;;;;0.66;100.00;97880.08;3789488;78;43678;-19
2021/01/02 04:09:06;;;;;;;13.83;8.87;;;;;;;0.66;100.00;97877.42;3783882;78;44097;-19
2021/01/02 04:14:12;;;;;;;13.60;8.20;;;;;;;0.70;100.00;97881.55;3754351;76;43648;-19
2021/01/02 04:19:18;;;;;;;15.47;9.00;;;;;;;0.69;100.00;97886.48;3753369;76;44031;-19
2021/01/02 04:24:24;;;;;;;15.23;8.63;;;;;;;0.67;100.00;97888.40;3772703;78;43705;-19
2021/01/02 04:29:31;;;;;;;16.73;9.50;;;;;;;0.67;100.00;97891.91;3779043;78;44465;-19
2021/01/02 04:34:36;;;;;;;15.10;9.13;;;;;;;0.66;100.00;97888.03;3805526;78;44050;-20
2021/01/02 04:39:42;;;;;;;16.90;9.40;;;;;;;0.58;100.00;97894.75;3769274;78;44749;-20
2021/01/02 04:44:51;;;;;;;18.60;9.30;;;;;;;0.53;100.00;97898.69;3769308;78;42828;-18
2021/01/02 04:49:59;;;;;;;15.40;9.10;;;;;;;0.50;100.00;97901.55;3783089;76;43101;-19
2021/01/02 04:55:08;;;;;;;16.43;9.43;;;;;;;0.52;100.00;97900.51;3702129;80;44467;-19
2021/01/02 05:00:16;;;;;;;16.83;9.13;;;;;;;0.45;100.00;97905.40;3767040;78;43379;-19
2021/01/02 05:05:23;;;;;;;17.73;9.50;;;;;;;0.35;100.00;97903.05;3763016;78;44047;-19
2021/01/02 05:10:29;;;;;;;17.33;9.53;;;;;;;0.35;100.00;97899.53;3786384;78;44436;-20
2021/01/02 05:15:35;;;;;;;16.37;9.27;;;;;;;0.37;100.00;97902.92;3793837;78;43697;-18
2021/01/02 05:20:41;;;;;;;17.97;9.40;;;;;;;0.42;100.00;97911.38;3752344;77;43958;-19
2021/01/02 05:25:47;;;;;;;16.33;8.97;;;;;;;0.40;100.00;97906.20;3683041;80;44685;-19
2021/01/02 05:30:52;;;;;;;17.33;9.53;;;;;;;0.45;100.00;97911.16;3756474;78;43698;-19
2021/01/02 05:35:58;;;;;;;15.07;9.00;;;;;;;0.47;100.00;97916.38;3793280;78;44024;-19
2021/01/02 05:41:04;;;;;;;15.27;8.40;;;;;;;0.49;100.00;97911.32;3746924;78;43019;-18
2021/01/02 05:46:12;;;;;;;13.47;7.33;;;;;;;0.50;100.00;97915.67;3669343;80;44483;-19
2021/01/02 05:51:21;;;;;;;15.57;8.30;;;;;;;0.53;100.00;97927.35;3782067;77;44442;-18
2021/01/02 05:56:28;;;;;;;12.50;7.47;;;;;;;0.55;100.00;97928.09;3774793;78;44207;-19
2021/01/02 06:01:34;;;;;;;15.73;7.80;;;;;;;0.60;100.00;97932.60;3760706;78;44027;-19
2021/01/02 06:06:40;;;;;;;12.80;7.50;;;;;;;0.56;100.00;97929.79;3806160;78;43412;-19
2021/01/02 06:11:49;;;;;;;14.33;7.60;;;;;;;0.60;100.00;97930.41;3750416;78;43987;-19
2021/01/02 06:16:56;;;;;;;14.93;7.97;;;;;;;0.64;100.00;97937.69;3792872;78;44053;-19
2021/01/02 06:22:04;;;;;;;15.30;7.37;;;;;;;0.64;100.00;97936.36;3753420;76;44062;-19
2021/01/02 06:27:11;;;;;;;13.90;7.60;;;;;;;0.65;100.00;97941.55;3795872;78;43264;-20
2021/01/02 06:32:17;;;;;;;12.13;6.57;;;;;;;0.64;100.00;97939.02;3776874;78;44393;-19
2021/01/02 06:37:23;;;;;;;11.17;6.57;;;;;;;0.67;100.00;97936.12;3697959;80;43325;-18
2021/01/02 06:42:33;;;;;;;11.13;6.23;;;;;;;0.68;100.00;97937.36;3737728;79;43349;-18
2021/01/02 06:47:40;;;;;;;10.53;5.93;;;;;;;0.67;100.00;97936.12;3696982;80;42944;-19
2021/01/02 06:52:45;;;;;;;12.23;6.63;;;;;;;0.59;100.00;97938.85;3806168;78;43329;-19
2021/01/02 06:57:52;;;;;;;10.77;6.20;;;;;;;0.63;100.00;97943.95;3763669;76;44074;-18
2021/01/02 07:02:59;;;;;;;11.40;6.47;;;;;;;0.59;100.00;97946.81;3663282;79;43725;-20
2021/01/02 07:08:05;;;;;;;11.30;6.20;;;;;;;0.58;100.00;97953.06;3793026;78;43184;-19
2021/01/02 07:13:11;;;;;;;10.70;6.77;;;;;;;0.59;100.00;97960.06;3689923;80;44070;-18
2021/01/02 07:18:30;;;;;;;12.13;7.07;;;;;;;0.58;100.00;97964.99;3781092;78;44125;-18
2021/01/02 07:23:37;;;;;;;10.97;6.40;;;;;;;0.60;100.00;97963.55;3758139;78;43685;-18
2021/01/02 07:28:53;;;;;;;11.77;6.30;;;;;;;0.58;100.00;97965.48;3778391;77;44083;-18
2021/01/02 07:34:00;;;;;;;10.03;6.30;;;;;;;0.58;100.00;97959.69;3656273;80;44453;-18
2021/01/02 07:39:07;;;;;;;10.23;5.87;;;;;;;0.55;100.00;97963.88;3766258;78;44030;-17
2021/01/02 07:44:14;;;;;;;12.13;6.70;;;;;;;0.55;100.00;97963.88;3743913;78;44044;-18
2021/01/02 07:49:20;;;;;;;10.23;5.70;;;;;;;0.60;100.00;97965.73;3768379;78;43662;-18
2021/01/02 07:54:34;;;;;;;10.43;6.47;;;;;;;0.59;100.00;97973.31;3777686;78;44483;-17
2021/01/02 07:59:41;;;;;;;12.23;6.70;;;;;;;0.63;100.00;97972.61;3773553;77;43628;-17
2021/01/02 08:04:50;;;;;;;8.77;4.63;;;;;;;0.69;100.00;97988.56;3683757;79;43571;-18
2021/01/02 08:09:56;;;;;;;8.47;5.10;;;;;;;0.71;100.00;97987.98;3792906;78;44401;-18
2021/01/02 08:15:04;;;;;;;11.23;5.90;;;;;;;0.75;100.00;97995.59;3793809;78;43253;-18
2021/01/02 08:20:12;;;;;;;8.93;5.70;;;;;;;0.75;100.00;97991.62;3756837;78;43790;-18
2021/01/02 08:25:19;;;;;;;7.43;5.10;;;;;;;0.83;100.00;97992.86;3780112;78;44002;-18
2021/01/02 08:30:25;;;;;;;9.60;6.10;;;;;;;0.92;100.00;97998.36;3792276;78;43984;-17
2021/01/02 08:35:36;;;;;;;11.23;6.43;;;;;;;0.94;100.00;98004.03;3758945;77;43701;-18
2021/01/02 08:40:44;;;;;;;10.93;6.10;;;;;;;0.96;100.00;97998.14;3751284;78;43694;-18
2021/01/02 08:45:52;;;;;;;11.33;6.80;;;;;;;0.99;100.00;98011.20;3763053;78;43557;-18
2021/01/02 08:51:00;;;;;;;10.70;6.23;;;;;;;1.06;100.00;98009.28;3748705;78;43691;-18
2021/01/02 08:56:25;;;;;;;14.07;6.90;;;;;;;1.11;100.00;98016.94;3789896;78;43795;-18
2021/01/02 09:01:33;;;;;;;11.00;6.30;;;;;;;1.17;100.00;98007.19;3777379;78;43678;-18
2021/01/02 09:06:41;;;;;;;9.83;6.13;;;;;;;1.29;100.00;98023.17;3779024;77;43279;-18
2021/01/02 09:11:50;;;;;;;10.63;5.70;;;;;;;1.33;100.00;98022.00;3793655;78;43369;-18
2021/01/02 09:17:03;;;;;;;9.73;6.03;;;;;;;1.37;100.00;98025.64;3672020;80;43476;-18
2021/01/02 09:22:18;;;;;;;9.27;6.03;;;;;;;1.45;100.00;98027.73;3740543;78;43579;-18
2021/01/02 09:27:24;;;;;;;10.57;6.03;;;;;;;1.52;100.00;98024.98;3793314;78;44028;-18
2021/01/02 09:32:32;;;;;;;9.50;5.97;;;;;;;1.57;100.00;98029.11;3790314;77;43417;-18
2021/01/02 09:37:37;;;;;;;10.83;6.40;;;;;;;1.63;100.00;98023.32;3684535;79;43992;-18
2021/01/02 09:42:43;;;;;;;9.73;6.17;;;;;;;1.62;100.00;98030.92;3631519;82;43473;-18
2021/01/02 09:47:49;;;;;;;12.53;7.30;;;;;;;1.70;100.00;98031.22;3683108;80;43350;-18
2021/01/02 09:52:55;;;;;;;12.27;7.93;;;;;;;1.78;100.00;98037.25;3786039;77;43722;-18
2021/01/02 09:58:02;;;;;;;11.70;7.80;;;;;;;1.84;100.00;98038.97;3785446;78;43357;-18
2021/01/02 10:03:09;;;;;;;16.60;8.00;;;;;;;1.96;100.00;98045.64;3731349;77;44467;-18
2021/01/02 10:08:18;;;;;;;14.57;7.97;;;;;;;2.08;100.00;98036.74;3674582;79;43715;-18
2021/01/02 10:13:24;;;;;;;19.20;10.17;;;;;;;2.09;100.00;98037.61;3631014;82;43358;-18
2021/01/02 10:18:30;;;;;;;12.87;7.80;;;;;;;2.24;100.00;98044.88;3630597;80;43658;-18
2021/01/02 10:23:36;;;;;;;11.97;6.50;;;;;;;2.34;100.00;98031.73;3793622;78;43393;-18
2021/01/02 10:28:42;;;;;;;10.40;6.30;;;;;;;2.38;100.00;98031.84;3777129;78;43506;-18
2021/01/02 10:33:49;;;;;;;11.03;7.17;;;;;;;2.42;100.00;98026.16;3782711;78;44306;-18
2021/01/02 10:38:55;;;;;;;13.43;7.90;;;;;;;2.33;100.00;98016.75;3793720;78;44198;-18
2021/01/02 10:44:02;;;;;;;10.53;7.07;;;;;;;2.39;100.00;98017.13;3737027;77;43694;-18
2021/01/02 10:49:09;;;;;;;10.43;6.63;;;;;;;2.51;100.00;98010.48;3793272;78;43114;-18
2021/01/02 10:54:18;;;;;;;10.23;6.50;;;;;;;2.63;100.00;98018.83;3678310;80;43327;-18
2021/01/02 10:59:25;;;;;;;9.13;5.53;;;;;;;2.66;100.00;98017.23;3756845;78;44034;-18
2021/01/02 11:04:31;;;;;;;9.53;6.37;;;;;;;2.73;100.00;98021.11;3670148;79;44134;-18
2021/01/02 11:09:40;;;;;;;9.00;5.97;;;;;;;2.80;100.00;98013.96;3779735;78;43979;-18
2021/01/02 11:14:45;;;;;;;10.70;6.80;;;;;;;2.86;100.00;98001.52;3672479;79;44203;-18
2021/01/02 11:19:51;;;;;;;9.17;5.90;;;;;;;2.94;100.00;97995.09;3760505;76;44459;-17
2021/01/02 11:24:59;;;;;;;38.63;27.80;;;;;;;2.99;100.00;97990.72;3778671;78;44108;-17
2021/01/02 11:30:09;;;;;;;8.77;5.40;;;;;;;2.98;100.00;97979.25;3771968;78;43282;-17
2021/01/02 11:35:16;;;;;;;12.37;7.10;;;;;;;2.98;100.00;97981.05;3762921;78;44449;-18
2021/01/02 11:40:22;;;;;;;25.07;18.23;;;;;;;3.11;100.00;97986.23;3806093;78;44188;-18
2021/01/02 11:45:30;;;;;;;10.77;7.37;;;;;;;3.11;100.00;97980.41;3801226;76;43709;-18
2021/01/02 11:50:36;;;;;;;93.47;45.03;;;;;;;3.12;100.00;97978.11;3806094;78;44024;-18
2021/01/02 11:55:44;;;;;;;12.40;7.03;;;;;;;3.21;100.00;97975.19;3702118;80;44032;-17
2021/01/02 12:00:50;;;;;;;18.30;11.83;;;;;;;3.31;100.00;97972.13;3763326;78;43674;-18
2021/01/02 12:05:56;;;;;;;23.40;13.80;;;;;;;3.29;100.00;97973.23;3781387;77;44015;-18
2021/01/02 12:11:06;;;;;;;32.70;18.63;;;;;;;3.32;100.00;97956.98;3779574;77;43003;-18
2021/01/02 12:16:12;;;;;;;9.87;6.37;;;;;;;3.26;100.00;97974.31;3789370;76;43701;-18
2021/01/02 12:21:22;;;;;;;9.73;6.03;;;;;;;3.32;100.00;97987.14;3696220;79;44839;-18
2021/01/02 12:26:27;;;;;;;9.77;6.60;;;;;;;3.27;100.00;97989.31;3715290;79;43410;-18
2021/01/02 12:31:33;;;;;;;10.70;9.03;;;;;;;3.35;100.00;97986.03;3749286;78;42935;-18
2021/01/02 12:36:42;;;;;;;6.53;4.60;;;;;;;3.41;100.00;97980.68;3717405;79;42939;-18
2021/01/02 12:41:48;;;;;;;31.03;19.03;;;;;;;3.45;100.00;97982.96;3801599;78;43989;-18
2021/01/02 12:46:57;;;;;;;7.67;6.00;;;;;;;3.48;100.00;97976.53;3743263;79;43290;-18
2021/01/02 12:52:07;;;;;;;8.63;6.10;;;;;;;3.39;100.00;97971.00;3799648;77;43756;-18
2021/01/02 12:57:14;;;;;;;9.43;6.60;;;;;;;3.26;100.00;97972.98;3801034;78;44043;-18
2021/01/02 13:02:22;;;;;;;9.73;7.77;;;;;;;3.19;100.00;97965.16;3801463;78;43247;-18
2021/01/02 13:07:28;;;;;;;2.83;2.50;;;;;;;3.30;100.00;97967.77;3794106;78;44013;-17
2021/01/02 13:12:34;;;;;;;3.97;2.83;;;;;;;3.23;100.00;97968.77;3792952;78;43354;-18
2021/01/02 13:17:41;;;;;;;4.53;4.07;;;;;;;3.20;100.00;97969.50;3687391;80;44033;-18
2021/01/02 13:22:47;;;;;;;3.90;3.23;;;;;;;3.13;100.00;97977.14;3768209;77;43350;-18
2021/01/02 13:27:53;;;;;;;3.53;2.77;;;;;;;3.00;100.00;97982.59;3787974;78;44022;-18
2021/01/02 13:33:00;;;;;;;4.00;3.53;;;;;;;2.78;100.00;97983.50;3731077;79;43739;-17
2021/01/02 13:38:07;;;;;;;4.57;3.10;;;;;;;2.90;100.00;97994.49;3782399;78;42815;-18
2021/01/02 13:43:13;;;;;;;14.30;10.43;;;;;;;2.96;100.00;97990.48;3793130;78;43435;-18
2021/01/02 13:48:19;;;;;;;9.93;8.70;;;;;;;2.97;100.00;97996.17;3784063;78;43377;-18
2021/01/02 13:53:25;;;;;;;13.53;8.73;;;;;;;2.90;100.00;97982.52;3790197;77;43338;-18
2021/01/02 13:58:31;;;;;;;10.00;8.80;;;;;;;2.85;100.00;97985.19;3763524;78;44014;-18
2021/01/02 14:03:39;;;;;;;8.40;7.37;;;;;;;2.80;100.00;97990.02;3618779;82;43291;-18
2021/01/02 14:08:45;;;;;;;7.67;6.40;;;;;;;2.78;100.00;97986.16;3705880;79;43290;-18
2021/01/02 14:13:53;;;;;;;10.00;7.63;;;;;;;2.75;100.00;97993.91;3738768;79;43692;-18
2021/01/02 14:19:01;;;;;;;17.67;13.33;;;;;;;2.69;100.00;97993.05;3740082;79;44088;-18
2021/01/02 14:24:10;;;;;;;6.00;4.50;;;;;;;2.68;100.00;97995.35;3716182;78;43306;-17
2021/01/02 14:29:16;;;;;;;6.27;5.00;;;;;;;2.69;100.00;97999.70;3739078;78;43373;-17
2021/01/02 14:34:24;;;;;;;5.60;4.17;;;;;;;2.65;100.00;97995.59;3726140;79;44137;-18
2021/01/02 14:39:32;;;;;;;6.57;4.07;;;;;;;2.61;100.00;97998.14;3769142;78;43401;-22
2021/01/02 14:44:38;;;;;;;4.53;3.60;;;;;;;2.54;100.00;98000.44;3682091;80;43367;-18
2021/01/02 14:49:44;;;;;;;9.53;6.50;;;;;;;2.48;100.00;97994.76;3765785;77;44005;-18
2021/01/02 14:54:51;;;;;;;5.80;4.10;;;;;;;2.38;100.00;97995.48;3700802;79;43424;-18
2021/01/02 14:59:57;;;;;;;8.20;5.80;;;;;;;2.42;100.00;97992.93;3609425;81;43029;-18
2021/01/02 15:05:05;;;;;;;8.70;6.63;;;;;;;2.37;100.00;97992.47;3630620;81;44209;-18
2021/01/02 15:10:14;;;;;;;8.47;6.10;;;;;;;2.29;100.00;97988.23;3762625;77;43361;-17
2021/01/02 15:15:20;;;;;;;6.47;5.17;;;;;;;2.15;100.00;97994.60;3687013;79;43419;-18
2021/01/02 15:20:26;;;;;;;5.37;3.90;;;;;;;2.10;100.00;97997.63;3600319;82;44048;-18
2021/01/02 15:25:33;;;;;;;5.93;4.50;;;;;;;2.02;100.00;97997.37;3701848;79;44025;-18
2021/01/02 15:30:39;;;;;;;5.90;4.30;;;;;;;1.95;100.00;97996.99;3705464;79;43685;-18
2021/01/02 15:35:47;;;;;;;7.17;5.13;;;;;;;1.89;100.00;97987.31;3655390;80;43692;-18
2021/01/02 15:40:58;;;;;;;7.03;4.73;;;;;;;1.83;100.00;97981.50;3759486;79;43636;-18
2021/01/02 15:46:09;;;;;;;8.10;5.90;;;;;;;1.77;100.00;97979.78;3655119;80;44005;-18
2021/01/02 15:51:12;;;;;;;12.70;7.80;;;;;;;1.68;100.00;97978.70;3767366;77;43221;-18
2021/01/02 15:56:22;;;;;;;10.90;8.10;;;;;;;1.70;100.00;97976.78;3668917;79;44040;-18
2021/01/02 16:01:28;;;;;;;13.70;9.20;;;;;;;1.64;100.00;97973.24;3675754;79;44517;-17
2021/01/02 16:06:35;;;;;;;12.40;6.80;;;;;;;1.56;100.00;97970.33;3631891;80;44054;-17
2021/01/02 16:11:43;;;;;;;8.80;6.00;;;;;;;1.47;100.00;97968.70;3819644;77;44610;-17
2021/01/02 16:16:49;;;;;;;7.03;5.00;;;;;;;1.40;100.00;97971.47;3725935;78;44134;-17
2021/01/02 16:21:59;;;;;;;5.67;4.37;;;;;;;1.31;100.00;97966.85;3726088;79;43684;-17
2021/01/02 16:27:07;;;;;;;6.40;4.60;;;;;;;1.24;100.00;97965.13;3723225;79;43400;-17
2021/01/02 16:32:13;;;;;;;7.00;4.80;;;;;;;1.28;100.00;97961.77;3784278;78;43979;-17
2021/01/02 16:37:21;;;;;;;7.17;4.97;;;;;;;1.27;100.00;97965.37;3723154;78;44012;-17
2021/01/02 16:42:30;;;;;;;6.83;4.77;;;;;;;1.25;100.00;97959.33;3724534;78;44501;-17
2021/01/02 16:47:39;;;;;;;8.43;5.87;;;;;;;1.22;100.00;97957.30;3721530;78;43220;-17
2021/01/02 16:52:45;;;;;;;8.60;6.13;;;;;;;1.26;100.00;97963.22;3771149;78;44046;-17
2021/01/02 16:57:52;;;;;;;8.03;5.87;;;;;;;1.25;100.00;97950.04;3685090;79;44442;-17
2021/01/02 17:02:58;;;;;;;8.73;6.00;;;;;;;1.26;100.00;97949.95;3667479;79;43583;-17
2021/01/02 17:08:05;;;;;;;9.83;6.07;;;;;;;1.20;100.00;97951.72;3698082;78;43991;-17
2021/01/02 17:13:10;;;;;;;9.57;6.37;;;;;;;1.23;100.00;97954.15;3684625;79;44059;-18
2021/01/02 17:18:16;;;;;;;14.00;8.77;;;;;;;1.20;100.00;97961.00;3677047;79;43326;-17
2021/01/02 17:23:22;;;;;;;10.43;7.67;;;;;;;1.23;100.00;97969.58;3712247;79;44125;-17
2021/01/02 17:28:29;;;;;;;17.03;11.73;;;;;;;1.23;100.00;97969.58;3687122;79;43679;-17
2021/01/02 17:33:36;;;;;;;33.33;19.43;;;;;;;1.27;100.00;97970.69;3621806;82;43400;-18
2021/01/02 17:38:42;;;;;;;18.43;12.57;;;;;;;1.22;100.00;97969.23;3686828;79;44808;-18
2021/01/02 17:43:48;;;;;;;15.60;9.90;;;;;;;1.21;100.00;97968.87;3688966;79;44038;-18
2021/01/02 17:48:55;;;;;;;11.43;8.03;;;;;;;1.22;100.00;97973.22;3624842;80;44466;-17
2021/01/02 17:54:01;;;;;;;18.70;11.67;;;;;;;1.21;100.00;97978.16;3583317;82;42802;-18
2021/01/02 17:59:08;;;;;;;11.37;7.93;;;;;;;1.19;100.00;97981.39;3782867;77;44501;-17
2021/01/02 18:04:14;;;;;;;10.57;6.97;;;;;;;1.22;100.00;97982.97;3749667;79;43475;-17
2021/01/02 18:09:22;;;;;;;11.77;8.60;;;;;;;1.26;100.00;97981.80;3686807;79;43682;-18
2021/01/02 18:14:31;;;;;;;13.07;9.77;;;;;;;1.24;100.00;97969.11;3655206;81;43717;-18
2021/01/02 18:19:37;;;;;;;10.53;7.40;;;;;;;1.28;100.00;97969.73;3680720;79;44424;-17
2021/01/02 18:24:43;;;;;;;17.97;10.57;;;;;;;1.21;100.00;97965.34;3708828;79;43924;-18
2021/01/02 18:29:51;;;;;;;14.20;8.63;;;;;;;1.23;100.00;97963.44;3785845;77;44044;-18
2021/01/02 18:34:57;;;;;;;11.87;7.80;;;;;;;1.23;100.00;97958.95;3743792;79;44579;-18
2021/01/02 18:40:03;;;;;;;11.10;7.37;;;;;;;1.22;100.00;97960.41;3672713;79;44017;-18
2021/01/02 18:45:11;;;;;;;11.30;7.00;;;;;;;1.22;100.00;97955.11;3662952;79;43303;-17
2021/01/02 18:50:18;;;;;;;11.97;7.63;;;;;;;1.18;100.00;97963.78;3793027;77;43438;-17
2021/01/02 18:55:24;;;;;;;11.90;7.60;;;;;;;1.23;100.00;97978.03;3696553;79;43461;-17
2021/01/02 19:00:30;;;;;;;12.17;7.73;;;;;;;1.22;100.00;97978.52;3796059;77;43684;-17
2021/01/02 19:05:36;;;;;;;19.53;13.47;;;;;;;1.25;100.00;97984.08;3695056;79;43741;-17
2021/01/02 19:10:43;;;;;;;14.50;9.17;;;;;;;1.21;100.00;97980.81;3759467;77;44158;-17
2021/01/02 19:15:50;;;;;;;29.47;15.57;;;;;;;1.20;100.00;97974.27;3699401;79;43734;-18
2021/01/02 19:20:57;;;;;;;22.40;11.73;;;;;;;1.20;100.00;97971.61;3729401;79;44693;-18
2021/01/02 19:26:04;;;;;;;18.60;10.43;;;;;;;1.22;100.00;97975.88;3703645;79;43373;-18
2021/01/02 19:31:09;;;;;;;24.60;13.17;;;;;;;1.25;100.00;97973.92;3734090;79;43663;-18
2021/01/02 19:36:15;;;;;;;19.50;10.63;;;;;;;1.23;100.00;97977.53;3712683;79;43654;-17
2021/01/02 19:41:21;;;;;;;19.80;11.80;;;;;;;1.24;100.00;97985.03;3700148;79;44041;-18
2021/01/02 19:46:27;;;;;;;17.50;10.10;;;;;;;1.25;100.00;97997.80;3701643;80;43335;-18
2021/01/02 19:51:34;;;;;;;19.20;11.40;;;;;;;1.22;100.00;97999.75;3741381;79;44021;-17
2021/01/02 19:56:49;;;;;;;18.07;10.70;;;;;;;1.23;100.00;98004.07;3741075;79;44545;-17
2021/01/02 20:01:56;;;;;;;19.63;11.63;;;;;;;1.26;100.00;98002.16;3770353;78;43030;-17
2021/01/02 20:07:05;;;;;;;23.17;13.10;;;;;;;1.25;100.00;97996.02;3751580;78;44137;-17
2021/01/02 20:12:11;;;;;;;19.20;12.37;;;;;;;1.21;100.00;97994.08;3724132;79;43713;-17
2021/01/02 20:17:17;;;;;;;20.30;11.70;;;;;;;1.25;100.00;97998.67;3792202;77;44084;-17
2021/01/02 20:22:23;;;;;;;23.13;12.97;;;;;;;1.20;100.00;97978.25;3765070;77;43722;-18
2021/01/02 20:27:30;;;;;;;22.13;12.70;;;;;;;1.29;100.00;97975.41;3762096;79;45012;-17
2021/01/02 20:32:36;;;;;;;22.03;11.60;;;;;;;1.22;100.00;97963.93;3668401;79;44011;-17
2021/01/02 20:37:43;;;;;;;19.60;11.37;;;;;;;1.24;100.00;97970.44;3698175;80;43694;-17
2021/01/02 20:42:49;;;;;;;21.03;11.60;;;;;;;1.22;100.00;97959.09;3707895;79;44034;-17
2021/01/02 20:47:56;;;;;;;20.40;11.17;;;;;;;1.21;100.00;97947.64;3692744;79;44034;-17
2021/01/02 20:53:01;;;;;;;20.03;12.07;;;;;;;1.21;100.00;97942.33;3725456;79;44435;-17
2021/01/02 20:58:07;;;;;;;20.57;12.07;;;;;;;1.22;100.00;97948.01;3694906;79;44058;-17
2021/01/02 21:03:13;;;;;;;25.10;13.43;;;;;;;1.17;100.00;97938.20;3767814;79;43716;-18
2021/01/02 21:08:21;;;;;;;21.47;12.40;;;;;;;1.15;100.00;97936.14;3721961;79;43293;-17
2021/01/02 21:13:28;;;;;;;22.53;12.30;;;;;;;1.15;100.00;97930.00;3704609;79;43334;-17
2021/01/02 21:18:37;;;;;;;21.60;12.17;;;;;;;1.13;100.00;97926.11;3718466;79;44409;-17
2021/01/02 21:23:44;;;;;;;22.73;12.77;;;;;;;1.15;100.00;97937.47;3704107;79;43228;-17
2021/01/02 21:28:52;;;;;;;20.60;11.97;;;;;;;1.15;100.00;97936.63;3721246;79;43517;-17
2021/01/02 21:34:01;;;;;;;22.33;12.03;;;;;;;1.14;100.00;97937.09;3767676;79;44482;-17
2021/01/02 21:39:16;;;;;;;22.67;11.70;;;;;;;1.15;100.00;97940.61;3709163;79;26378;-17
2021/01/02 21:44:24;;;;;;;22.00;12.67;;;;;;;1.11;100.00;97933.37;3704761;80;44085;-17
2021/01/02 21:49:33;;;;;;;20.07;11.77;;;;;;;1.11;100.00;97935.16;3728430;79;44144;-17
2021/01/02 21:54:42;;;;;;;23.20;12.70;;;;;;;1.11;100.00;97927.20;3710675;78;44370;-17
2021/01/02 21:59:49;;;;;;;22.17;12.27;;;;;;;1.10;100.00;97934.33;3726526;78;44121;-17
2021/01/02 22:04:56;;;;;;;22.47;12.60;;;;;;;1.14;100.00;97928.31;3767570;78;44192;-17
2021/01/02 22:10:07;;;;;;;22.90;12.53;;;;;;;1.13;100.00;97929.27;3730166;79;43690;-17
2021/01/02 22:15:15;;;;;;;23.87;12.50;;;;;;;1.10;100.00;97926.37;3766221;79;43292;-17
2021/01/02 22:20:24;;;;;;;22.63;12.10;;;;;;;1.07;100.00;97922.61;3733927;78;43703;-19
2021/01/02 22:25:34;;;;;;;21.97;12.90;;;;;;;1.15;100.00;97919.39;3715900;79;43684;-19
2021/01/02 22:30:44;;;;;;;24.43;13.50;;;;;;;1.16;100.00;97917.94;3731703;79;44023;-19
2021/01/02 22:36:06;;;;;;;22.40;13.00;;;;;;;1.17;100.00;97916.98;3705454;79;43397;-19
2021/01/02 22:41:15;;;;;;;24.57;13.43;;;;;;;1.20;100.00;97919.41;3694985;80;43267;-19
2021/01/02 22:46:24;;;;;;;21.40;11.93;;;;;;;1.12;100.00;97913.80;3768488;78;45881;-19
2021/01/02 22:51:31;;;;;;;22.30;13.13;;;;;;;1.15;100.00;97909.61;3813478;77;44023;-19
2021/01/02 22:56:41;;;;;;;22.87;12.73;;;;;;;1.08;100.00;97905.73;3670817;80;44399;-19
2021/01/02 23:01:49;;;;;;;24.80;13.47;;;;;;;1.05;100.00;97909.47;3678774;79;43364;-19
2021/01/02 23:06:56;;;;;;;24.90;12.93;;;;;;;1.13;100.00;97910.20;3768631;79;43420;-19
2021/01/02 23:12:03;;;;;;;24.73;14.23;;;;;;;1.01;100.00;97913.76;3679532;79;43676;-19
2021/01/02 23:17:12;;;;;;;25.73;13.50;;;;;;;1.02;100.00;97903.52;3705806;79;43686;-18
2021/01/02 23:22:19;;;;;;;26.33;14.17;;;;;;;0.99;100.00;97891.83;3737726;79;44070;-19
2021/01/02 23:27:28;;;;;;;21.80;12.10;;;;;;;1.04;100.00;97886.55;3763346;78;43677;-19
2021/01/02 23:32:36;;;;;;;24.23;13.27;;;;;;;1.03;100.00;97874.24;3799681;77;43644;-19
2021/01/02 23:37:42;;;;;;;22.37;13.10;;;;;;;1.10;100.00;97867.14;3700165;80;43534;-19
2021/01/02 23:42:52;;;;;;;21.50;12.53;;;;;;;1.08;100.00;97861.96;3705895;79;43724;-19
2021/01/02 23:47:59;;;;;;;22.33;12.97;;;;;;;1.15;100.00;97849.91;3709987;79;43375;-19
2021/01/02 23:53:08;;;;;;;25.57;14.17;;;;;;;0.95;100.00;97835.98;3734319;79;43710;-19